17 août 2022

Temps Code Temps Temp. Vue Base cloud Vent METAR/SPECI
21:00
V
25 °C 10 km+ - 150° 150° 10 - 15 kt METAR AYPY 171100Z 15010G15KT 9999 FEW030 25/19 Q1013
20:00
V
25 °C 10 km+ - 140° 140° 15 - 20 kt METAR AYPY 171000Z 14015G20KT 9999 FEW030 25/18 Q1012
19:00
V
26 °C 10 km+ - 150° 150° 15 - 25 kt METAR AYPY 170900Z 15015G25KT 9999 FEW030 26/18 Q1012
18:00
V
26 °C 10 km+ - 160° 160° 15 - 25 kt METAR AYPY 170800Z 16015G25KT 9999 FEW030 26/19 Q1011
17:00
V
28 °C 10 km+ - 160° 160° 13 - 25 kt METAR AYPY 170700Z 16013G25KT 9999 FEW025 28/18 Q1011
16:00
V
29 °C 10 km+ - 160° 160° 20 kt METAR AYPY 170600Z 16020KT 9999 FEW030 29/16 Q1010=
15:00
V
30 °C 10 km+ - 160° 160° 22 kt METAR AYPY 170500Z 16022KT 9999 HZ FEW035 30/16 Q1011
14:00
V
31 °C 10 km+ - 160° 160° 20 kt METAR AYPY 170400Z 16020KT 9999 HZ FEW030 31/19 Q1011
13:00
V
31 °C 10 km+ - 150° 150° 10 - 20 kt METAR AYPY 170300Z 15010G20KT 9999 HZ FEW035 31/18 Q1012
12:00
V
30 °C 10 km+ - 150° 150° 10 kt METAR AYPY 170200Z 15010KT 9999 HZ SCT050 30/17 Q1013
11:00
V
29 °C 10 km+ 7.000 ft 210° 210° 10 kt METAR AYPY 170100Z 21010KT 9999 HZ FEW040 BKN070 29/18 Q1013
10:00
V
28 °C 10 km+ 7.000 ft 160° 160° 15 kt METAR AYPY 170000Z 16015KT 9999 HZ FEW040 OVC070 28/18 Q1014
09:00
V
26 °C 10 km+ 6.000 ft 160° 160° 17 kt METAR AYPY 162300Z 16017KT 9999 HZ SCT040 OVC060 26/20 Q1014
08:00
V
25 °C 10 km+ 6.000 ft 160° 160° 10 - 15 kt METAR AYPY 162200Z 16010G15KT 9999 HZ FEW040 OVC060 25/19 Q1014
07:00
V
24 °C 10 km+ 5.000 ft 160° 160° 7 kt METAR AYPY 162100Z 16007KT 9999 FEW035 BKN050 24/20 Q1013
05:00
V
24 °C 10 km+ - 130° 130° 10 kt METAR AYPY 161900Z 13010KT 9999 SCT040 24/20 Q1012
04:00
V
23 °C 10 km+ - Var Var 3 kt METAR AYPY 161800Z VRB03KT 9999 SCT050 23/21 Q1011
03:00
V
23 °C 10 km+ - Var Var 3 kt METAR AYPY 161700Z VRB03KT 9999 SCT050 23/21 Q1011
02:00
V
23 °C 10 km+ - Var Var 5 kt METAR AYPY 161600Z VRB05KT 9999 SKC 23/21 Q1011
01:00
V
23 °C 10 km+ - 160° 160° 5 kt METAR AYPY 161500Z 16005KT 9999 SKC 23/21 Q1012
00:00
V
23 °C 10 km+ - 170° 170° 9 kt METAR AYPY 161400Z 17009KT 9999 SCT060 23/21 Q1012

16 août 2022

Temps Code Temps Temp. Vue Base cloud Vent METAR/SPECI
23:00
V
24 °C 10 km+ - 150° 150° 9 kt METAR AYPY 161300Z 15009KT 9999 SCT060 24/22 Q1012
22:00
V
25 °C 10 km+ - 150° 150° 15 kt METAR AYPY 161200Z 15015KT 9999 SCT030 SCT040 25/21 Q1013
21:00
V
25 °C 10 km+ - 150° 150° 10 - 15 kt METAR AYPY 161100Z 15010G15KT 9999 SCT030 SCT040 25/22 Q1012
20:00
M
25 °C 10 km+ 2.500 ft 150° 150° 12 - 17 kt METAR AYPY 161000Z 15012G17KT 9999 SHRA SCT015 OVC025 25/22 Q1012
19:00
L
25 °C 0 m 2.500 ft 160° 160° 18 - 24 kt METAR AYPY 160900Z 16018G24KT 8KM SHRA SCT015 OVC025 25/22 Q1011
18:00
L
25 °C 0 m 1.500 ft 150° 150° 18 kt METAR AYPY 160800Z 15018KT 8KM SHRA BKN015 BKN025 OVC040 25/23 Q1010
17:00
M
26 °C 10 km+ 1.500 ft 160° 160° 20 kt METAR AYPY 160700Z 16020KT 9999 HZ BKN015 BKN025 OVC045 26/23 Q1009
16:00
M
27 °C 10 km+ 1.500 ft 160° 160° 18 kt METAR AYPY 160600Z 16018KT 9999 BKN015 BKN025 OVC045 27/24 Q1009
15:00
V
29 °C 10 km+ - 160° 160° 18 kt METAR AYPY 160500Z 16018KT 9999 SCT020 SCT035 29/23 Q1009
14:00
V
30 °C 10 km+ - 170° 170° 15 kt METAR AYPY 160400Z 17015KT 9999 SCT035 30/23 Q1009
13:00
V
31 °C 10 km+ - 160° 160° 10 kt METAR AYPY 160300Z 16010KT 9999 FEW020 SCT035 31/24 Q1010
12:00
V
31 °C 10 km+ - 150° 150° 10 kt METAR AYPY 160200Z 15010KT 9999 SCT035 31/23 Q1011
11:00
V
31 °C 10 km+ - 160° 160° 10 kt METAR AYPY 160100Z 16010KT 9999 SCT035 31/23 Q1012
10:00
V
28 °C 10 km+ - Var Var 3 kt METAR AYPY 160000Z VRB03KT 9999 FEW015 SCT050 28/23 Q1012
09:00
V
26 °C 10 km+ 5.000 ft Var Var 3 kt METAR AYPY 152300Z VRB03KT 9999 FEW020 BKN050 26/23 Q1012
08:00
V
25 °C 10 km+ - Var Var 3 kt METAR AYPY 152200Z VRB03KT 9999 FEW030 SCT070 25/24 Q1012
07:00
V
25 °C 10 km+ - Var Var 2 kt METAR AYPY 152100Z VRB02KT 9999 FEW020 SCT040 25/23 Q1011
06:00
V
24 °C 10 km+ - Var Var 3 kt METAR AYPY 152000Z VRB03KT 9999 SCT035 24/23 Q1010
05:00
V
24 °C 10 km+ - 110° 110° 5 kt METAR AYPY 151900Z 11005KT 9999 SCT025 SCT090 24/23 Q1010
04:00
V
25 °C 10 km+ 3.000 ft 120° 120° 10 kt METAR AYPY 151800Z 12010KT 9999 FEW015 BKN030 OVC130 25/23 Q1010
03:00
M
25 °C 10 km+ 2.500 ft 140° 140° 15 kt METAR AYPY 151700Z 14015KT 9999 FEW010 SCT015 BKN025 25/23 Q1010
02:00
V
25 °C 10 km+ 5.000 ft 140° 140° 15 kt METAR AYPY 151600Z 14015KT 9999 FEW008 BKN050 OVC130 25/23 Q1010
01:00
V
25 °C 10 km+ 5.000 ft 150° 150° 20 kt METAR AYPY 151500Z 15020KT 9999 SCT010 BKN050 OVC110 25/24 Q1010
00:00
V
25 °C 10 km+ - 140° 140° 10 kt METAR AYPY 151400Z 14010KT 9999 SCT050 25/24 Q1011

15 août 2022

Temps Code Temps Temp. Vue Base cloud Vent METAR/SPECI
23:00
V
25 °C 10 km+ 11.000 ft 150° 150° 5 kt METAR AYPY 151300Z 15005KT 9999 FEW010 SCT025 BKN110 25/24 Q1011
22:00
V
25 °C 10 km+ - 140° 140° 7 kt METAR AYPY 151200Z 14007KT 9999 FEW015 SCT030 25/24 Q1011
Données plus anciennes

Nous et des tiers suivons ton comportement sur Internet sur notre site Web à l'aide de cookies. Si tu continues, nous supposons que tu acceptes notre politique en matière de cookies. Apprendre plus